sensor_id;sensor_type;location;lat;lon;timestamp;P1;durP1;ratioP1;P2;durP2;ratioP2
16029;SDS011;34770;49.272;11.070;2023-04-25T00:02:21;3.72;;;3.42;;
16029;SDS011;34770;49.272;11.070;2023-04-25T00:04:47;13.88;;;4.00;;
16029;SDS011;34770;49.272;11.070;2023-04-25T00:07:14;4.85;;;4.35;;
16029;SDS011;34770;49.272;11.070;2023-04-25T00:09:40;5.03;;;4.53;;
16029;SDS011;34770;49.272;11.070;2023-04-25T00:12:07;5.88;;;4.20;;
16029;SDS011;34770;49.272;11.070;2023-04-25T00:14:32;4.93;;;4.43;;
16029;SDS011;34770;49.272;11.070;2023-04-25T00:17:01;4.95;;;4.53;;
16029;SDS011;34770;49.272;11.070;2023-04-25T00:19:27;4.82;;;4.32;;
16029;SDS011;34770;49.272;11.070;2023-04-25T00:21:56;4.90;;;4.40;;
16029;SDS011;34770;49.272;11.070;2023-04-25T00:24:22;6.03;;;4.63;;
16029;SDS011;34770;49.272;11.070;2023-04-25T00:26:47;5.15;;;4.25;;
16029;SDS011;34770;49.272;11.070;2023-04-25T00:29:13;5.82;;;5.07;;
16029;SDS011;34770;49.272;11.070;2023-04-25T00:31:38;5.80;;;5.03;;
16029;SDS011;34770;49.272;11.070;2023-04-25T00:34:04;5.15;;;4.65;;
16029;SDS011;34770;49.272;11.070;2023-04-25T00:36:31;4.65;;;4.25;;
16029;SDS011;34770;49.272;11.070;2023-04-25T00:38:57;5.20;;;4.40;;
16029;SDS011;34770;49.272;11.070;2023-04-25T00:41:22;4.97;;;4.47;;
16029;SDS011;34770;49.272;11.070;2023-04-25T00:43:50;4.60;;;4.20;;
16029;SDS011;34770;49.272;11.070;2023-04-25T00:46:16;4.97;;;4.47;;
16029;SDS011;34770;49.272;11.070;2023-04-25T00:48:42;4.40;;;4.05;;
16029;SDS011;34770;49.272;11.070;2023-04-25T00:51:08;5.30;;;4.80;;
16029;SDS011;34770;49.272;11.070;2023-04-25T00:53:38;7.80;;;5.57;;
16029;SDS011;34770;49.272;11.070;2023-04-25T00:56:04;4.47;;;4.07;;
16029;SDS011;34770;49.272;11.070;2023-04-25T00:58:30;4.90;;;4.25;;
16029;SDS011;34770;49.272;11.070;2023-04-25T01:00:56;4.60;;;4.20;;
16029;SDS011;34770;49.272;11.070;2023-04-25T01:03:22;5.63;;;4.40;;
16029;SDS011;34770;49.272;11.070;2023-04-25T01:05:48;5.15;;;4.63;;
16029;SDS011;34770;49.272;11.070;2023-04-25T01:08:15;5.47;;;4.28;;
16029;SDS011;34770;49.272;11.070;2023-04-25T01:10:41;3.70;;;3.35;;
16029;SDS011;34770;49.272;11.070;2023-04-25T01:13:07;4.10;;;3.80;;
16029;SDS011;34770;49.272;11.070;2023-04-25T01:15:32;7.82;;;3.45;;
16029;SDS011;34770;49.272;11.070;2023-04-25T01:17:58;4.75;;;4.00;;
16029;SDS011;34770;49.272;11.070;2023-04-25T01:20:25;3.72;;;3.42;;
16029;SDS011;34770;49.272;11.070;2023-04-25T01:22:53;4.57;;;4.18;;
16029;SDS011;34770;49.272;11.070;2023-04-25T01:25:20;3.63;;;3.33;;
16029;SDS011;34770;49.272;11.070;2023-04-25T01:27:47;6.95;;;4.78;;
16029;SDS011;34770;49.272;11.070;2023-04-25T01:30:12;4.85;;;4.35;;
16029;SDS011;34770;49.272;11.070;2023-04-25T01:32:38;3.58;;;3.28;;
16029;SDS011;34770;49.272;11.070;2023-04-25T01:35:06;4.13;;;3.70;;
16029;SDS011;34770;49.272;11.070;2023-04-25T01:37:41;3.45;;;3.00;;
16029;SDS011;34770;49.272;11.070;2023-04-25T01:40:08;6.25;;;4.10;;
16029;SDS011;34770;49.272;11.070;2023-04-25T01:42:36;4.65;;;3.97;;
16029;SDS011;34770;49.272;11.070;2023-04-25T01:45:03;4.47;;;3.50;;
16029;SDS011;34770;49.272;11.070;2023-04-25T01:47:29;3.70;;;3.40;;
16029;SDS011;34770;49.272;11.070;2023-04-25T01:49:54;4.25;;;3.85;;
16029;SDS011;34770;49.272;11.070;2023-04-25T01:52:20;3.97;;;3.67;;
16029;SDS011;34770;49.272;11.070;2023-04-25T01:54:45;3.90;;;3.60;;
16029;SDS011;34770;49.272;11.070;2023-04-25T01:57:12;3.35;;;3.10;;
16029;SDS011;34770;49.272;11.070;2023-04-25T01:59:37;7.82;;;3.60;;
16029;SDS011;34770;49.272;11.070;2023-04-25T02:02:03;4.35;;;3.95;;
16029;SDS011;34770;49.272;11.070;2023-04-25T02:04:29;3.55;;;3.28;;
16029;SDS011;34770;49.272;11.070;2023-04-25T02:06:55;3.97;;;3.65;;
16029;SDS011;34770;49.272;11.070;2023-04-25T02:09:20;3.45;;;3.15;;
16029;SDS011;34770;49.272;11.070;2023-04-25T02:11:46;3.50;;;3.20;;
16029;SDS011;34770;49.272;11.070;2023-04-25T02:14:12;4.25;;;3.33;;
16029;SDS011;34770;49.272;11.070;2023-04-25T02:16:37;3.63;;;3.13;;
16029;SDS011;34770;49.272;11.070;2023-04-25T02:19:04;3.85;;;3.55;;
16029;SDS011;34770;49.272;11.070;2023-04-25T02:21:30;4.50;;;4.10;;
16029;SDS011;34770;49.272;11.070;2023-04-25T02:23:56;3.72;;;3.40;;
16029;SDS011;34770;49.272;11.070;2023-04-25T02:26:22;4.15;;;3.28;;
16029;SDS011;34770;49.272;11.070;2023-04-25T02:28:49;4.85;;;3.60;;
16029;SDS011;34770;49.272;11.070;2023-04-25T02:31:15;3.67;;;3.38;;
16029;SDS011;34770;49.272;11.070;2023-04-25T02:33:41;3.50;;;3.03;;
16029;SDS011;34770;49.272;11.070;2023-04-25T02:36:08;4.47;;;3.42;;
16029;SDS011;34770;49.272;11.070;2023-04-25T02:38:33;4.03;;;3.58;;
16029;SDS011;34770;49.272;11.070;2023-04-25T02:40:58;8.18;;;4.82;;
16029;SDS011;34770;49.272;11.070;2023-04-25T02:43:24;5.65;;;4.50;;
16029;SDS011;34770;49.272;11.070;2023-04-25T02:45:49;4.47;;;4.07;;
16029;SDS011;34770;49.272;11.070;2023-04-25T02:48:15;5.95;;;4.18;;
16029;SDS011;34770;49.272;11.070;2023-04-25T02:50:40;4.95;;;4.45;;
16029;SDS011;34770;49.272;11.070;2023-04-25T02:53:06;3.72;;;3.42;;
16029;SDS011;34770;49.272;11.070;2023-04-25T02:55:31;4.90;;;4.50;;
16029;SDS011;34770;49.272;11.070;2023-04-25T02:57:57;5.03;;;4.53;;
16029;SDS011;34770;49.272;11.070;2023-04-25T03:00:22;5.30;;;4.72;;
16029;SDS011;34770;49.272;11.070;2023-04-25T03:02:48;5.70;;;5.20;;
16029;SDS011;34770;49.272;11.070;2023-04-25T03:05:14;9.60;;;4.30;;
16029;SDS011;34770;49.272;11.070;2023-04-25T03:07:39;5.57;;;4.88;;
16029;SDS011;34770;49.272;11.070;2023-04-25T03:10:07;5.72;;;3.92;;
16029;SDS011;34770;49.272;11.070;2023-04-25T03:12:33;4.85;;;4.45;;
16029;SDS011;34770;49.272;11.070;2023-04-25T03:14:58;6.18;;;4.13;;
16029;SDS011;34770;49.272;11.070;2023-04-25T03:17:24;5.55;;;4.28;;
16029;SDS011;34770;49.272;11.070;2023-04-25T03:19:49;4.72;;;4.25;;
16029;SDS011;34770;49.272;11.070;2023-04-25T03:22:15;4.53;;;4.13;;
16029;SDS011;34770;49.272;11.070;2023-04-25T03:24:40;5.68;;;4.53;;
16029;SDS011;34770;49.272;11.070;2023-04-25T03:27:06;5.90;;;4.60;;
16029;SDS011;34770;49.272;11.070;2023-04-25T03:29:31;5.85;;;4.40;;
16029;SDS011;34770;49.272;11.070;2023-04-25T03:31:57;6.35;;;4.50;;
16029;SDS011;34770;49.272;11.070;2023-04-25T03:34:22;5.28;;;4.40;;
16029;SDS011;34770;49.272;11.070;2023-04-25T03:36:49;4.97;;;4.47;;
16029;SDS011;34770;49.272;11.070;2023-04-25T03:39:14;4.82;;;4.32;;
16029;SDS011;34770;49.272;11.070;2023-04-25T03:41:40;5.72;;;4.43;;
16029;SDS011;34770;49.272;11.070;2023-04-25T03:44:06;5.55;;;4.97;;
16029;SDS011;34770;49.272;11.070;2023-04-25T03:46:32;4.70;;;4.10;;
16029;SDS011;34770;49.272;11.070;2023-04-25T03:48:58;7.18;;;5.57;;
16029;SDS011;34770;49.272;11.070;2023-04-25T03:51:24;4.72;;;4.32;;
16029;SDS011;34770;49.272;11.070;2023-04-25T03:53:51;6.60;;;4.50;;
16029;SDS011;34770;49.272;11.070;2023-04-25T03:56:17;7.43;;;4.32;;
16029;SDS011;34770;49.272;11.070;2023-04-25T03:58:43;5.15;;;3.97;;
16029;SDS011;34770;49.272;11.070;2023-04-25T04:01:09;4.68;;;3.90;;
16029;SDS011;34770;49.272;11.070;2023-04-25T04:03:35;4.15;;;3.75;;
16029;SDS011;34770;49.272;11.070;2023-04-25T04:06:02;4.38;;;3.53;;
16029;SDS011;34770;49.272;11.070;2023-04-25T04:08:29;4.05;;;3.70;;
16029;SDS011;34770;49.272;11.070;2023-04-25T04:10:55;4.07;;;3.08;;
16029;SDS011;34770;49.272;11.070;2023-04-25T04:13:22;3.47;;;3.00;;
16029;SDS011;34770;49.272;11.070;2023-04-25T04:15:47;3.90;;;3.50;;
16029;SDS011;34770;49.272;11.070;2023-04-25T04:18:13;3.80;;;3.50;;
16029;SDS011;34770;49.272;11.070;2023-04-25T04:20:38;3.60;;;3.30;;
16029;SDS011;34770;49.272;11.070;2023-04-25T04:23:04;4.80;;;3.85;;
16029;SDS011;34770;49.272;11.070;2023-04-25T04:25:30;3.78;;;3.42;;
16029;SDS011;34770;49.272;11.070;2023-04-25T04:27:56;3.30;;;3.00;;
16029;SDS011;34770;49.272;11.070;2023-04-25T04:30:22;3.63;;;3.30;;
16029;SDS011;34770;49.272;11.070;2023-04-25T04:32:50;3.40;;;3.10;;
16029;SDS011;34770;49.272;11.070;2023-04-25T04:35:16;3.78;;;3.15;;
16029;SDS011;34770;49.272;11.070;2023-04-25T04:37:41;3.60;;;3.30;;
16029;SDS011;34770;49.272;11.070;2023-04-25T04:40:09;3.45;;;3.15;;
16029;SDS011;34770;49.272;11.070;2023-04-25T04:42:35;3.05;;;2.85;;
16029;SDS011;34770;49.272;11.070;2023-04-25T04:45:01;3.38;;;3.08;;
16029;SDS011;34770;49.272;11.070;2023-04-25T04:47:28;3.92;;;3.63;;
16029;SDS011;34770;49.272;11.070;2023-04-25T04:49:56;4.07;;;3.55;;
16029;SDS011;34770;49.272;11.070;2023-04-25T04:52:22;5.30;;;3.58;;
16029;SDS011;34770;49.272;11.070;2023-04-25T04:54:47;6.55;;;3.85;;
16029;SDS011;34770;49.272;11.070;2023-04-25T04:57:13;3.95;;;3.35;;
16029;SDS011;34770;49.272;11.070;2023-04-25T04:59:39;3.70;;;3.45;;
16029;SDS011;34770;49.272;11.070;2023-04-25T05:02:04;3.35;;;3.05;;
16029;SDS011;34770;49.272;11.070;2023-04-25T05:04:30;4.80;;;4.05;;
16029;SDS011;34770;49.272;11.070;2023-04-25T05:06:56;3.80;;;3.50;;
16029;SDS011;34770;49.272;11.070;2023-04-25T05:09:21;3.95;;;3.42;;
16029;SDS011;34770;49.272;11.070;2023-04-25T05:11:51;4.85;;;4.10;;
16029;SDS011;34770;49.272;11.070;2023-04-25T05:14:17;5.85;;;3.42;;
16029;SDS011;34770;49.272;11.070;2023-04-25T05:16:43;4.15;;;3.78;;
16029;SDS011;34770;49.272;11.070;2023-04-25T05:19:08;3.83;;;3.40;;
16029;SDS011;34770;49.272;11.070;2023-04-25T05:21:34;4.50;;;4.10;;
16029;SDS011;34770;49.272;11.070;2023-04-25T05:24:00;4.32;;;3.92;;
16029;SDS011;34770;49.272;11.070;2023-04-25T05:26:27;5.25;;;4.47;;
16029;SDS011;34770;49.272;11.070;2023-04-25T05:28:57;5.60;;;4.00;;
16029;SDS011;34770;49.272;11.070;2023-04-25T05:31:25;5.03;;;4.53;;
16029;SDS011;34770;49.272;11.070;2023-04-25T05:33:51;5.47;;;4.03;;
16029;SDS011;34770;49.272;11.070;2023-04-25T05:36:18;4.85;;;4.43;;
16029;SDS011;34770;49.272;11.070;2023-04-25T05:38:44;6.30;;;4.88;;
16029;SDS011;34770;49.272;11.070;2023-04-25T05:41:10;7.32;;;5.32;;
16029;SDS011;34770;49.272;11.070;2023-04-25T05:43:36;5.30;;;4.75;;
16029;SDS011;34770;49.272;11.070;2023-04-25T05:46:02;5.63;;;5.05;;
16029;SDS011;34770;49.272;11.070;2023-04-25T05:48:28;6.95;;;5.13;;
16029;SDS011;34770;49.272;11.070;2023-04-25T05:50:55;4.90;;;4.45;;
16029;SDS011;34770;49.272;11.070;2023-04-25T05:53:20;5.82;;;5.20;;
16029;SDS011;34770;49.272;11.070;2023-04-25T05:55:47;6.00;;;5.03;;
16029;SDS011;34770;49.272;11.070;2023-04-25T05:58:12;6.07;;;5.47;;
16029;SDS011;34770;49.272;11.070;2023-04-25T06:00:43;5.97;;;5.28;;
16029;SDS011;34770;49.272;11.070;2023-04-25T06:03:12;6.25;;;5.60;;
16029;SDS011;34770;49.272;11.070;2023-04-25T06:05:41;6.03;;;5.43;;
16029;SDS011;34770;49.272;11.070;2023-04-25T06:08:07;5.72;;;5.10;;
16029;SDS011;34770;49.272;11.070;2023-04-25T06:10:33;6.75;;;6.07;;
16029;SDS011;34770;49.272;11.070;2023-04-25T06:12:59;8.98;;;7.68;;
16029;SDS011;34770;49.272;11.070;2023-04-25T06:15:25;6.40;;;5.28;;
16029;SDS011;34770;49.272;11.070;2023-04-25T06:17:51;8.48;;;6.82;;
16029;SDS011;34770;49.272;11.070;2023-04-25T06:20:16;7.75;;;6.68;;
16029;SDS011;34770;49.272;11.070;2023-04-25T06:22:42;6.88;;;5.95;;
16029;SDS011;34770;49.272;11.070;2023-04-25T06:25:07;7.18;;;5.70;;
16029;SDS011;34770;49.272;11.070;2023-04-25T06:27:33;9.93;;;7.18;;
16029;SDS011;34770;49.272;11.070;2023-04-25T06:29:59;9.40;;;8.23;;
16029;SDS011;34770;49.272;11.070;2023-04-25T06:32:24;5.75;;;5.18;;
16029;SDS011;34770;49.272;11.070;2023-04-25T06:34:52;8.82;;;7.60;;
16029;SDS011;34770;49.272;11.070;2023-04-25T06:37:18;6.05;;;5.32;;
16029;SDS011;34770;49.272;11.070;2023-04-25T06:39:43;8.38;;;7.57;;
16029;SDS011;34770;49.272;11.070;2023-04-25T06:42:09;9.43;;;7.63;;
16029;SDS011;34770;49.272;11.070;2023-04-25T06:44:35;7.18;;;6.45;;
16029;SDS011;34770;49.272;11.070;2023-04-25T06:47:00;8.15;;;7.35;;
16029;SDS011;34770;49.272;11.070;2023-04-25T06:49:26;8.15;;;7.10;;
16029;SDS011;34770;49.272;11.070;2023-04-25T06:51:51;6.80;;;6.13;;
16029;SDS011;34770;49.272;11.070;2023-04-25T06:54:17;7.57;;;6.60;;
16029;SDS011;34770;49.272;11.070;2023-04-25T06:56:42;19.23;;;12.80;;
16029;SDS011;34770;49.272;11.070;2023-04-25T06:59:08;6.05;;;5.47;;
16029;SDS011;34770;49.272;11.070;2023-04-25T07:01:34;9.10;;;7.22;;
16029;SDS011;34770;49.272;11.070;2023-04-25T07:04:00;8.27;;;6.60;;
16029;SDS011;34770;49.272;11.070;2023-04-25T07:06:25;6.57;;;5.88;;
16029;SDS011;34770;49.272;11.070;2023-04-25T07:08:52;9.82;;;8.18;;
16029;SDS011;34770;49.272;11.070;2023-04-25T07:11:18;6.25;;;5.65;;
16029;SDS011;34770;49.272;11.070;2023-04-25T07:13:44;8.85;;;5.35;;
16029;SDS011;34770;49.272;11.070;2023-04-25T07:16:09;5.80;;;5.20;;
16029;SDS011;34770;49.272;11.070;2023-04-25T07:18:35;5.85;;;5.18;;
16029;SDS011;34770;49.272;11.070;2023-04-25T07:21:00;5.57;;;5.05;;
16029;SDS011;34770;49.272;11.070;2023-04-25T07:23:25;5.70;;;4.32;;
16029;SDS011;34770;49.272;11.070;2023-04-25T07:25:51;5.03;;;4.50;;
16029;SDS011;34770;49.272;11.070;2023-04-25T07:28:16;7.05;;;5.63;;
16029;SDS011;34770;49.272;11.070;2023-04-25T07:30:43;9.07;;;5.28;;
16029;SDS011;34770;49.272;11.070;2023-04-25T07:33:08;6.78;;;5.30;;
16029;SDS011;34770;49.272;11.070;2023-04-25T07:35:34;8.00;;;5.95;;
16029;SDS011;34770;49.272;11.070;2023-04-25T07:37:59;6.72;;;5.90;;
16029;SDS011;34770;49.272;11.070;2023-04-25T07:40:26;6.90;;;6.22;;
16029;SDS011;34770;49.272;11.070;2023-04-25T07:42:52;7.78;;;6.40;;
16029;SDS011;34770;49.272;11.070;2023-04-25T07:45:17;8.48;;;7.57;;
16029;SDS011;34770;49.272;11.070;2023-04-25T07:47:43;8.40;;;6.15;;
16029;SDS011;34770;49.272;11.070;2023-04-25T07:50:08;9.20;;;6.88;;
16029;SDS011;34770;49.272;11.070;2023-04-25T07:52:35;6.50;;;5.90;;
16029;SDS011;34770;49.272;11.070;2023-04-25T07:55:00;7.35;;;5.32;;
16029;SDS011;34770;49.272;11.070;2023-04-25T07:57:26;8.98;;;5.65;;
16029;SDS011;34770;49.272;11.070;2023-04-25T07:59:51;10.27;;;6.13;;
16029;SDS011;34770;49.272;11.070;2023-04-25T08:02:17;11.07;;;6.57;;
16029;SDS011;34770;49.272;11.070;2023-04-25T08:04:42;7.03;;;6.22;;
16029;SDS011;34770;49.272;11.070;2023-04-25T08:07:08;5.75;;;5.15;;
16029;SDS011;34770;49.272;11.070;2023-04-25T08:09:34;6.60;;;5.82;;
16029;SDS011;34770;49.272;11.070;2023-04-25T08:12:01;6.97;;;6.30;;
16029;SDS011;34770;49.272;11.070;2023-04-25T08:14:27;10.27;;;6.70;;
16029;SDS011;34770;49.272;11.070;2023-04-25T08:16:56;6.40;;;5.32;;
16029;SDS011;34770;49.272;11.070;2023-04-25T08:19:21;7.35;;;5.65;;
16029;SDS011;34770;49.272;11.070;2023-04-25T08:21:48;12.87;;;6.40;;
16029;SDS011;34770;49.272;11.070;2023-04-25T08:24:17;5.63;;;5.13;;
16029;SDS011;34770;49.272;11.070;2023-04-25T08:26:42;6.95;;;5.57;;
16029;SDS011;34770;49.272;11.070;2023-04-25T08:29:07;7.07;;;5.72;;
16029;SDS011;34770;49.272;11.070;2023-04-25T08:31:33;6.57;;;5.00;;
16029;SDS011;34770;49.272;11.070;2023-04-25T08:33:58;4.93;;;4.43;;
16029;SDS011;34770;49.272;11.070;2023-04-25T08:36:24;4.80;;;4.22;;
16029;SDS011;34770;49.272;11.070;2023-04-25T08:38:50;7.45;;;4.63;;
16029;SDS011;34770;49.272;11.070;2023-04-25T08:41:15;4.80;;;4.38;;
16029;SDS011;34770;49.272;11.070;2023-04-25T08:43:42;4.65;;;4.22;;
16029;SDS011;34770;49.272;11.070;2023-04-25T08:46:09;5.63;;;4.47;;
16029;SDS011;34770;49.272;11.070;2023-04-25T08:48:36;6.78;;;5.03;;
16029;SDS011;34770;49.272;11.070;2023-04-25T08:51:02;4.32;;;3.80;;
16029;SDS011;34770;49.272;11.070;2023-04-25T08:53:32;4.82;;;3.75;;
16029;SDS011;34770;49.272;11.070;2023-04-25T08:55:59;4.78;;;4.32;;
16029;SDS011;34770;49.272;11.070;2023-04-25T08:58:29;6.05;;;4.25;;
16029;SDS011;34770;49.272;11.070;2023-04-25T09:00:55;6.10;;;4.50;;
16029;SDS011;34770;49.272;11.070;2023-04-25T09:03:21;6.05;;;3.80;;
16029;SDS011;34770;49.272;11.070;2023-04-25T09:05:46;5.15;;;4.72;;
16029;SDS011;34770;49.272;11.070;2023-04-25T09:08:12;5.88;;;4.50;;
16029;SDS011;34770;49.272;11.070;2023-04-25T09:10:37;6.07;;;4.75;;
16029;SDS011;34770;49.272;11.070;2023-04-25T09:13:10;5.50;;;4.90;;
16029;SDS011;34770;49.272;11.070;2023-04-25T09:16:13;7.10;;;4.93;;
16029;SDS011;34770;49.272;11.070;2023-04-25T09:18:33;6.03;;;4.60;;
16029;SDS011;34770;49.272;11.070;2023-04-25T09:21:06;8.98;;;3.95;;
16029;SDS011;34770;49.272;11.070;2023-04-25T09:23:40;6.43;;;5.00;;
16029;SDS011;34770;49.272;11.070;2023-04-25T09:26:08;6.80;;;5.63;;
16029;SDS011;34770;49.272;11.070;2023-04-25T09:28:34;5.80;;;5.22;;
16029;SDS011;34770;49.272;11.070;2023-04-25T09:31:01;5.40;;;4.90;;
16029;SDS011;34770;49.272;11.070;2023-04-25T09:33:30;4.05;;;3.75;;
16029;SDS011;34770;49.272;11.070;2023-04-25T09:36:04;5.07;;;4.57;;
16029;SDS011;34770;49.272;11.070;2023-04-25T09:38:32;7.82;;;5.55;;
16029;SDS011;34770;49.272;11.070;2023-04-25T09:41:09;7.70;;;5.32;;
16029;SDS011;34770;49.272;11.070;2023-04-25T09:43:35;5.65;;;4.88;;
16029;SDS011;34770;49.272;11.070;2023-04-25T09:46:01;5.57;;;4.57;;
16029;SDS011;34770;49.272;11.070;2023-04-25T09:48:27;5.10;;;4.57;;
16029;SDS011;34770;49.272;11.070;2023-04-25T09:53:28;6.60;;;5.18;;
16029;SDS011;34770;49.272;11.070;2023-04-25T09:55:53;5.35;;;4.90;;
16029;SDS011;34770;49.272;11.070;2023-04-25T09:58:21;5.15;;;4.65;;
16029;SDS011;34770;49.272;11.070;2023-04-25T10:00:49;5.60;;;5.10;;
16029;SDS011;34770;49.272;11.070;2023-04-25T10:03:19;6.63;;;4.57;;
16029;SDS011;34770;49.272;11.070;2023-04-25T10:05:47;5.07;;;4.47;;
16029;SDS011;34770;49.272;11.070;2023-04-25T10:08:14;4.47;;;4.07;;
16029;SDS011;34770;49.272;11.070;2023-04-25T10:10:41;4.93;;;4.43;;
16029;SDS011;34770;49.272;11.070;2023-04-25T10:13:08;4.18;;;3.80;;
16029;SDS011;34770;49.272;11.070;2023-04-25T10:15:34;9.77;;;6.22;;
16029;SDS011;34770;49.272;11.070;2023-04-25T10:18:01;5.55;;;4.03;;
16029;SDS011;34770;49.272;11.070;2023-04-25T10:20:27;5.07;;;3.85;;
16029;SDS011;34770;49.272;11.070;2023-04-25T10:22:54;4.88;;;4.40;;
16029;SDS011;34770;49.272;11.070;2023-04-25T10:25:23;4.18;;;3.80;;
16029;SDS011;34770;49.272;11.070;2023-04-25T10:27:52;6.43;;;4.00;;
16029;SDS011;34770;49.272;11.070;2023-04-25T10:30:18;6.13;;;4.50;;
16029;SDS011;34770;49.272;11.070;2023-04-25T10:32:44;4.45;;;4.03;;
16029;SDS011;34770;49.272;11.070;2023-04-25T10:35:13;6.88;;;4.35;;
16029;SDS011;34770;49.272;11.070;2023-04-25T10:37:59;6.03;;;4.57;;
16029;SDS011;34770;49.272;11.070;2023-04-25T10:40:28;4.50;;;4.10;;
16029;SDS011;34770;49.272;11.070;2023-04-25T10:42:54;6.22;;;3.63;;
16029;SDS011;34770;49.272;11.070;2023-04-25T10:45:22;3.65;;;3.35;;
16029;SDS011;34770;49.272;11.070;2023-04-25T10:47:48;4.32;;;3.67;;
16029;SDS011;34770;49.272;11.070;2023-04-25T10:50:14;4.60;;;4.13;;
16029;SDS011;34770;49.272;11.070;2023-04-25T10:52:41;5.22;;;3.55;;
16029;SDS011;34770;49.272;11.070;2023-04-25T10:55:07;6.03;;;4.25;;
16029;SDS011;34770;49.272;11.070;2023-04-25T10:57:37;3.83;;;3.50;;
16029;SDS011;34770;49.272;11.070;2023-04-25T11:05:10;3.55;;;3.25;;
16029;SDS011;34770;49.272;11.070;2023-04-25T11:10:28;6.53;;;3.22;;
16029;SDS011;34770;49.272;11.070;2023-04-25T11:12:55;5.85;;;3.47;;
16029;SDS011;34770;49.272;11.070;2023-04-25T11:15:21;3.22;;;2.53;;
16029;SDS011;34770;49.272;11.070;2023-04-25T11:17:47;5.03;;;2.33;;
16029;SDS011;34770;49.272;11.070;2023-04-25T11:20:12;3.28;;;2.97;;
16029;SDS011;34770;49.272;11.070;2023-04-25T11:22:39;4.45;;;3.13;;
16029;SDS011;34770;49.272;11.070;2023-04-25T11:25:09;5.63;;;3.13;;
16029;SDS011;34770;49.272;11.070;2023-04-25T11:30:18;4.25;;;3.17;;
16029;SDS011;34770;49.272;11.070;2023-04-25T11:32:44;3.78;;;2.67;;
16029;SDS011;34770;49.272;11.070;2023-04-25T11:35:10;3.53;;;3.10;;
16029;SDS011;34770;49.272;11.070;2023-04-25T11:37:40;5.40;;;3.10;;
16029;SDS011;34770;49.272;11.070;2023-04-25T11:40:07;3.03;;;2.70;;
16029;SDS011;34770;49.272;11.070;2023-04-25T11:42:36;4.50;;;3.10;;
16029;SDS011;34770;49.272;11.070;2023-04-25T11:45:09;5.00;;;2.97;;
16029;SDS011;34770;49.272;11.070;2023-04-25T11:47:35;2.88;;;2.67;;
16029;SDS011;34770;49.272;11.070;2023-04-25T11:50:05;3.53;;;3.13;;
16029;SDS011;34770;49.272;11.070;2023-04-25T11:57:35;5.75;;;3.10;;
16029;SDS011;34770;49.272;11.070;2023-04-25T12:00:16;3.90;;;3.10;;
16029;SDS011;34770;49.272;11.070;2023-04-25T12:02:44;4.85;;;2.88;;
16029;SDS011;34770;49.272;11.070;2023-04-25T12:05:23;5.95;;;2.75;;
16029;SDS011;34770;49.272;11.070;2023-04-25T12:07:50;4.00;;;3.08;;
16029;SDS011;34770;49.272;11.070;2023-04-25T12:10:16;2.85;;;2.45;;
16029;SDS011;34770;49.272;11.070;2023-04-25T12:12:43;3.50;;;2.90;;
16029;SDS011;34770;49.272;11.070;2023-04-25T12:15:23;3.60;;;2.60;;
16029;SDS011;34770;49.272;11.070;2023-04-25T12:17:51;3.00;;;1.88;;
16029;SDS011;34770;49.272;11.070;2023-04-25T12:20:19;3.40;;;2.20;;
16029;SDS011;34770;49.272;11.070;2023-04-25T12:22:48;3.50;;;2.25;;
16029;SDS011;34770;49.272;11.070;2023-04-25T12:28:18;3.83;;;1.92;;
16029;SDS011;34770;49.272;11.070;2023-04-25T12:30:54;5.05;;;2.45;;
16029;SDS011;34770;49.272;11.070;2023-04-25T12:33:20;2.53;;;2.03;;
16029;SDS011;34770;49.272;11.070;2023-04-25T12:35:46;2.65;;;1.95;;
16029;SDS011;34770;49.272;11.070;2023-04-25T12:38:20;2.70;;;1.85;;
16029;SDS011;34770;49.272;11.070;2023-04-25T12:40:48;1.90;;;1.77;;
16029;SDS011;34770;49.272;11.070;2023-04-25T12:43:13;2.10;;;2.00;;
16029;SDS011;34770;49.272;11.070;2023-04-25T12:45:39;1.92;;;1.83;;
16029;SDS011;34770;49.272;11.070;2023-04-25T12:48:05;4.60;;;2.20;;
16029;SDS011;34770;49.272;11.070;2023-04-25T12:50:31;3.33;;;2.40;;
16029;SDS011;34770;49.272;11.070;2023-04-25T12:52:58;2.05;;;1.95;;
16029;SDS011;34770;49.272;11.070;2023-04-25T12:55:27;2.58;;;1.85;;
16029;SDS011;34770;49.272;11.070;2023-04-25T12:57:53;3.03;;;2.05;;
16029;SDS011;34770;49.272;11.070;2023-04-25T13:00:18;2.85;;;2.13;;
16029;SDS011;34770;49.272;11.070;2023-04-25T13:02:45;2.13;;;2.00;;
16029;SDS011;34770;49.272;11.070;2023-04-25T13:05:26;3.70;;;2.45;;
16029;SDS011;34770;49.272;11.070;2023-04-25T13:08:07;1.95;;;1.85;;
16029;SDS011;34770;49.272;11.070;2023-04-25T13:10:33;2.22;;;1.98;;
16029;SDS011;34770;49.272;11.070;2023-04-25T13:12:59;2.90;;;2.33;;
16029;SDS011;34770;49.272;11.070;2023-04-25T13:15:26;2.30;;;2.10;;
16029;SDS011;34770;49.272;11.070;2023-04-25T13:17:53;3.05;;;2.53;;
16029;SDS011;34770;49.272;11.070;2023-04-25T13:20:19;3.28;;;3.05;;
16029;SDS011;34770;49.272;11.070;2023-04-25T13:22:47;2.38;;;2.20;;
16029;SDS011;34770;49.272;11.070;2023-04-25T13:25:13;2.22;;;2.03;;
16029;SDS011;34770;49.272;11.070;2023-04-25T13:27:38;2.60;;;2.40;;
16029;SDS011;34770;49.272;11.070;2023-04-25T13:30:05;2.95;;;2.60;;
16029;SDS011;34770;49.272;11.070;2023-04-25T13:32:35;3.65;;;2.22;;
16029;SDS011;34770;49.272;11.070;2023-04-25T13:35:02;2.90;;;2.10;;
16029;SDS011;34770;49.272;11.070;2023-04-25T13:37:31;2.80;;;2.05;;
16029;SDS011;34770;49.272;11.070;2023-04-25T13:40:01;2.60;;;2.40;;
16029;SDS011;34770;49.272;11.070;2023-04-25T13:42:29;2.83;;;2.63;;
16029;SDS011;34770;49.272;11.070;2023-04-25T13:44:58;7.22;;;4.88;;
16029;SDS011;34770;49.272;11.070;2023-04-25T13:47:25;2.35;;;2.10;;
16029;SDS011;34770;49.272;11.070;2023-04-25T13:49:51;3.58;;;2.72;;
16029;SDS011;34770;49.272;11.070;2023-04-25T13:52:16;3.22;;;2.92;;
16029;SDS011;34770;49.272;11.070;2023-04-25T13:54:42;3.60;;;2.60;;
16029;SDS011;34770;49.272;11.070;2023-04-25T13:57:08;6.30;;;5.70;;
16029;SDS011;34770;49.272;11.070;2023-04-25T13:59:38;5.13;;;4.63;;
16029;SDS011;34770;49.272;11.070;2023-04-25T14:02:05;5.60;;;5.10;;
16029;SDS011;34770;49.272;11.070;2023-04-25T14:04:34;3.60;;;2.53;;
16029;SDS011;34770;49.272;11.070;2023-04-25T14:07:01;3.42;;;3.10;;
16029;SDS011;34770;49.272;11.070;2023-04-25T14:09:28;4.15;;;3.22;;
16029;SDS011;34770;49.272;11.070;2023-04-25T14:11:54;3.75;;;2.65;;
16029;SDS011;34770;49.272;11.070;2023-04-25T14:14:21;3.78;;;3.00;;
16029;SDS011;34770;49.272;11.070;2023-04-25T14:16:47;2.90;;;2.70;;
16029;SDS011;34770;49.272;11.070;2023-04-25T14:19:14;3.67;;;3.38;;
16029;SDS011;34770;49.272;11.070;2023-04-25T14:21:42;3.05;;;2.70;;
16029;SDS011;34770;49.272;11.070;2023-04-25T14:24:08;4.25;;;3.20;;
16029;SDS011;34770;49.272;11.070;2023-04-25T14:26:34;3.33;;;3.03;;
16029;SDS011;34770;49.272;11.070;2023-04-25T14:29:05;4.18;;;3.00;;
16029;SDS011;34770;49.272;11.070;2023-04-25T14:31:32;5.63;;;3.97;;
16029;SDS011;34770;49.272;11.070;2023-04-25T14:33:58;3.75;;;2.50;;
16029;SDS011;34770;49.272;11.070;2023-04-25T14:36:24;3.95;;;3.25;;
16029;SDS011;34770;49.272;11.070;2023-04-25T14:38:51;3.63;;;3.10;;
16029;SDS011;34770;49.272;11.070;2023-04-25T14:41:17;3.83;;;3.00;;
16029;SDS011;34770;49.272;11.070;2023-04-25T14:43:43;4.45;;;3.10;;
16029;SDS011;34770;49.272;11.070;2023-04-25T14:46:10;3.92;;;3.05;;
16029;SDS011;34770;49.272;11.070;2023-04-25T14:48:36;3.78;;;3.40;;
16029;SDS011;34770;49.272;11.070;2023-04-25T14:51:02;2.70;;;2.45;;
16029;SDS011;34770;49.272;11.070;2023-04-25T14:53:28;2.78;;;2.58;;